createdAt,value
2023-05-14T00:01:46.470Z,24.20
2023-05-14T00:04:13.397Z,24.20
2023-05-14T00:06:40.206Z,24.20
2023-05-14T00:09:06.959Z,24.20
2023-05-14T00:11:33.761Z,24.10
2023-05-14T00:14:00.529Z,24.10
2023-05-14T00:16:27.270Z,24.10
2023-05-14T00:18:54.484Z,24.10
2023-05-14T00:21:21.283Z,24.10
2023-05-14T00:23:48.025Z,24.00
2023-05-14T00:26:14.815Z,24.00
2023-05-14T00:28:44.155Z,24.00
2023-05-14T00:31:11.211Z,24.00
2023-05-14T00:33:37.970Z,24.00
2023-05-14T00:36:04.918Z,23.90
2023-05-14T00:38:31.693Z,23.90
2023-05-14T00:40:58.503Z,23.90
2023-05-14T00:43:25.994Z,23.90
2023-05-14T00:45:54.767Z,23.80
2023-05-14T00:48:22.507Z,23.80
2023-05-14T00:50:50.045Z,23.80
2023-05-14T00:53:18.160Z,23.80
2023-05-14T00:55:45.712Z,23.80
2023-05-14T00:58:13.572Z,23.70
2023-05-14T01:00:41.572Z,23.70
2023-05-14T01:03:09.116Z,23.70
2023-05-14T01:05:51.588Z,23.70
2023-05-14T01:08:40.057Z,23.70
2023-05-14T01:11:30.617Z,23.60
2023-05-14T01:14:14.826Z,23.60
2023-05-14T01:16:42.255Z,23.60
2023-05-14T01:19:21.391Z,23.50
2023-05-14T01:21:48.187Z,23.50
2023-05-14T01:24:14.942Z,23.50
2023-05-14T01:26:41.679Z,23.40
2023-05-14T01:29:20.328Z,23.40
2023-05-14T01:31:49.129Z,23.40
2023-05-14T01:34:16.700Z,23.40
2023-05-14T01:36:44.221Z,23.40
2023-05-14T01:39:12.351Z,23.40
2023-05-14T01:41:39.517Z,23.40
2023-05-14T01:44:06.412Z,23.30
2023-05-14T01:46:34.164Z,23.30
2023-05-14T01:49:01.244Z,23.30
2023-05-14T01:51:28.284Z,23.30
2023-05-14T01:53:55.059Z,23.30
2023-05-14T01:56:23.769Z,23.30
2023-05-14T01:58:50.563Z,23.30
2023-05-14T02:01:17.482Z,23.20
2023-05-14T02:03:44.286Z,23.20
2023-05-14T02:06:11.132Z,23.20
2023-05-14T02:08:37.912Z,23.20
2023-05-14T02:11:04.670Z,23.20
2023-05-14T02:13:31.417Z,23.20
2023-05-14T02:15:58.432Z,23.10
2023-05-14T02:18:25.481Z,23.10
2023-05-14T02:20:52.774Z,23.10
2023-05-14T02:23:25.587Z,23.10
2023-05-14T02:25:58.100Z,23.10
2023-05-14T02:28:24.885Z,23.10
2023-05-14T02:30:51.604Z,23.00
2023-05-14T02:33:18.457Z,23.00
2023-05-14T02:35:45.471Z,23.00
2023-05-14T02:38:13.639Z,23.00
2023-05-14T02:40:40.465Z,23.00
2023-05-14T02:43:07.191Z,23.00
2023-05-14T02:45:33.940Z,22.90
2023-05-14T02:48:00.754Z,22.90
2023-05-14T02:50:27.569Z,22.90
2023-05-14T02:52:54.337Z,22.90
2023-05-14T02:55:21.869Z,22.90
2023-05-14T02:57:48.717Z,22.90
2023-05-14T03:00:15.716Z,22.80
2023-05-14T03:02:43.584Z,22.80
2023-05-14T03:05:10.880Z,22.80
2023-05-14T03:07:37.626Z,22.80
2023-05-14T03:10:04.782Z,22.70
2023-05-14T03:12:31.549Z,22.70
2023-05-14T03:14:58.288Z,22.70
2023-05-14T03:17:25.065Z,22.70
2023-05-14T03:19:51.857Z,22.70
2023-05-14T03:22:18.702Z,22.70
2023-05-14T03:24:45.707Z,22.70
2023-05-14T03:27:12.499Z,22.60
2023-05-14T03:29:39.268Z,22.60
2023-05-14T03:32:07.209Z,22.60
2023-05-14T03:34:33.978Z,22.60
2023-05-14T03:37:01.629Z,22.50
2023-05-14T03:39:29.263Z,22.50
2023-05-14T03:41:58.744Z,22.50
2023-05-14T03:44:25.719Z,22.50
2023-05-14T03:46:52.922Z,22.40
2023-05-14T03:49:19.767Z,22.40
2023-05-14T03:51:46.610Z,22.40
2023-05-14T03:54:13.553Z,22.40
2023-05-14T03:56:40.356Z,22.40
2023-05-14T03:59:07.118Z,22.40
2023-05-14T04:01:33.896Z,22.30
2023-05-14T04:04:00.801Z,22.30
2023-05-14T04:06:27.748Z,22.30
2023-05-14T04:08:55.366Z,22.30
2023-05-14T04:11:22.282Z,22.30
2023-05-14T04:13:49.586Z,22.20
2023-05-14T04:16:16.433Z,22.20
2023-05-14T04:18:43.261Z,22.20
2023-05-14T04:21:10.123Z,22.20
2023-05-14T04:23:36.921Z,22.20
2023-05-14T04:26:04.823Z,22.20
2023-05-14T04:28:31.556Z,22.10
2023-05-14T04:30:58.321Z,22.10
2023-05-14T04:33:25.061Z,22.10
2023-05-14T04:35:52.653Z,22.10
2023-05-14T04:38:19.594Z,22.10
2023-05-14T04:40:46.416Z,22.10
2023-05-14T04:43:13.172Z,22.10
2023-05-14T04:45:40.976Z,22.10
2023-05-14T04:48:07.954Z,22.10
2023-05-14T04:50:35.183Z,22.00
2023-05-14T04:53:01.942Z,22.00
2023-05-14T04:55:28.889Z,22.00
2023-05-14T04:57:55.842Z,22.00
2023-05-14T05:00:23.437Z,22.00
2023-05-14T05:02:50.711Z,22.00
2023-05-14T05:05:17.607Z,22.00
2023-05-14T05:07:44.353Z,22.00
2023-05-14T05:10:11.203Z,22.00
2023-05-14T05:12:38.138Z,22.00
2023-05-14T05:15:05.591Z,22.00
2023-05-14T05:17:32.385Z,22.00
2023-05-14T05:19:59.979Z,22.00
2023-05-14T05:22:26.935Z,22.00
2023-05-14T05:24:53.691Z,22.00
2023-05-14T05:27:21.970Z,22.00
2023-05-14T05:29:48.712Z,22.00
2023-05-14T05:32:16.398Z,22.00
2023-05-14T05:34:43.302Z,22.00
2023-05-14T05:37:12.731Z,22.00
2023-05-14T05:39:39.816Z,22.00
2023-05-14T05:42:07.121Z,22.00
2023-05-14T05:44:33.863Z,22.00
2023-05-14T05:47:00.742Z,22.00
2023-05-14T05:49:28.504Z,22.00
2023-05-14T05:51:55.323Z,22.00
2023-05-14T05:54:23.763Z,22.00
2023-05-14T05:56:51.052Z,22.10
2023-05-14T05:59:17.773Z,22.10
2023-05-14T06:01:44.590Z,22.00
2023-05-14T06:04:11.426Z,22.10
2023-05-14T06:06:38.193Z,22.00
2023-05-14T06:09:06.878Z,22.00
2023-05-14T06:11:33.835Z,22.10
2023-05-14T06:14:00.624Z,22.00
2023-05-14T06:16:27.524Z,22.10
2023-05-14T06:18:55.508Z,22.10
2023-05-14T06:21:22.466Z,22.10
2023-05-14T06:23:49.237Z,22.10
2023-05-14T06:26:16.039Z,22.10
2023-05-14T06:28:42.854Z,22.10
2023-05-14T06:31:09.688Z,22.10
2023-05-14T06:33:36.757Z,22.10
2023-05-14T06:36:07.903Z,22.10
2023-05-14T06:38:34.683Z,22.20
2023-05-14T06:41:01.449Z,22.20
2023-05-14T06:43:28.532Z,22.20
2023-05-14T06:45:55.394Z,22.20
2023-05-14T06:48:22.333Z,22.10
2023-05-14T06:50:49.667Z,22.10
2023-05-14T06:53:16.496Z,22.10
2023-05-14T06:55:43.678Z,22.00
2023-05-14T06:58:10.465Z,22.00
2023-05-14T07:00:38.269Z,21.90
2023-05-14T07:03:05.970Z,21.90
2023-05-14T07:05:32.796Z,21.90
2023-05-14T07:07:59.740Z,21.90
2023-05-14T07:10:27.451Z,21.80
2023-05-14T07:12:54.260Z,21.80
2023-05-14T07:15:21.212Z,21.80
2023-05-14T07:17:48.083Z,21.80
2023-05-14T07:20:14.857Z,21.80
2023-05-14T07:22:42.740Z,21.80
2023-05-14T07:25:09.692Z,21.80
2023-05-14T07:27:36.414Z,21.80
2023-05-14T07:30:03.404Z,21.90
2023-05-14T07:32:30.344Z,21.90
2023-05-14T07:34:57.138Z,21.90
2023-05-14T07:37:25.901Z,21.90
2023-05-14T07:39:53.669Z,22.00
2023-05-14T07:42:34.443Z,22.00
2023-05-14T07:45:02.472Z,22.00
2023-05-14T07:47:30.590Z,22.10
2023-05-14T07:49:57.924Z,22.20
2023-05-14T07:52:25.010Z,22.20
2023-05-14T07:54:52.099Z,22.30
2023-05-14T07:57:19.776Z,22.30
2023-05-14T07:59:48.260Z,22.40
2023-05-14T08:02:16.582Z,22.50
2023-05-14T08:04:43.848Z,22.50
2023-05-14T08:07:10.733Z,22.60
2023-05-14T08:09:37.781Z,22.60
2023-05-14T08:12:04.982Z,22.70
2023-05-14T08:14:31.768Z,22.80
2023-05-14T08:16:58.643Z,22.80
2023-05-14T08:19:27.299Z,22.90
2023-05-14T08:21:54.338Z,23.00
2023-05-14T08:24:21.431Z,23.00
2023-05-14T08:26:48.245Z,23.10
2023-05-14T08:29:16.560Z,23.20
2023-05-14T08:31:43.868Z,23.30
2023-05-14T08:34:10.769Z,23.40
2023-05-14T08:36:38.630Z,23.40
2023-05-14T08:39:07.566Z,23.50
2023-05-14T08:41:34.787Z,23.60
2023-05-14T08:44:10.772Z,23.70
2023-05-14T08:46:38.652Z,23.80
2023-05-14T08:49:32.598Z,23.80
2023-05-14T08:52:00.387Z,23.90
2023-05-14T08:54:28.584Z,24.00
2023-05-14T08:56:56.248Z,24.10
2023-05-14T08:59:22.981Z,24.10
2023-05-14T09:01:53.396Z,24.30
2023-05-14T09:04:23.012Z,24.40
2023-05-14T09:06:51.916Z,24.40
2023-05-14T09:09:18.877Z,24.50
2023-05-14T09:11:53.602Z,24.60
2023-05-14T09:14:22.229Z,24.80
2023-05-14T09:16:50.183Z,24.80
2023-05-14T09:19:19.232Z,24.90
2023-05-14T09:21:47.165Z,24.90
2023-05-14T09:24:24.993Z,25.00
2023-05-14T09:26:53.515Z,25.10
2023-05-14T09:29:20.529Z,25.20
2023-05-14T09:31:50.445Z,25.20
2023-05-14T09:34:37.389Z,25.30
2023-05-14T09:37:08.806Z,25.40
2023-05-14T09:39:37.235Z,25.40
2023-05-14T09:42:04.470Z,25.50
2023-05-14T09:44:31.914Z,25.60
2023-05-14T09:46:58.869Z,25.60
2023-05-14T09:49:25.925Z,25.70
2023-05-14T09:51:52.788Z,25.80
2023-05-14T09:54:19.625Z,25.90
2023-05-14T09:56:46.410Z,25.90
2023-05-14T09:59:13.190Z,26.00
2023-05-14T10:01:43.674Z,26.10
2023-05-14T10:04:11.446Z,26.20
2023-05-14T10:06:39.338Z,26.30
2023-05-14T10:09:12.089Z,26.40
2023-05-14T10:11:43.272Z,26.50
2023-05-14T10:14:33.198Z,26.60
2023-05-14T10:17:01.955Z,26.70
2023-05-14T10:19:33.448Z,26.70
2023-05-14T10:22:04.541Z,26.80
2023-05-14T10:24:31.882Z,26.90
2023-05-14T10:26:58.856Z,26.90
2023-05-14T10:29:34.049Z,27.10
2023-05-14T10:32:06.815Z,27.20
2023-05-14T10:34:46.617Z,27.20
2023-05-14T10:37:17.718Z,27.30
2023-05-14T10:39:59.182Z,27.40
2023-05-14T10:42:39.640Z,27.50
2023-05-14T10:45:11.259Z,27.60
2023-05-14T10:47:39.743Z,27.70
2023-05-14T10:50:12.426Z,27.70
2023-05-14T10:52:44.770Z,27.80
2023-05-14T10:55:16.337Z,27.90
2023-05-14T10:57:45.349Z,28.00
2023-05-14T11:00:13.740Z,28.10
2023-05-14T11:02:41.844Z,28.20
2023-05-14T11:05:11.592Z,28.30
2023-05-14T11:07:40.647Z,28.30
2023-05-14T11:10:09.960Z,28.40
2023-05-14T11:12:39.180Z,28.50
2023-05-14T11:15:11.182Z,28.60
2023-05-14T11:17:40.409Z,28.60
2023-05-14T11:20:08.083Z,28.70
2023-05-14T11:22:36.158Z,28.80
2023-05-14T11:25:03.253Z,28.90
2023-05-14T11:27:31.077Z,28.90
2023-05-14T11:29:58.166Z,29.00
2023-05-14T11:32:25.046Z,29.00
2023-05-14T11:34:51.930Z,29.10
2023-05-14T11:37:18.733Z,29.10
2023-05-14T11:39:50.693Z,29.20
2023-05-14T11:42:19.492Z,29.30
2023-05-14T11:44:51.955Z,29.40
2023-05-14T11:47:21.170Z,29.50
2023-05-14T11:49:49.605Z,29.60
2023-05-14T11:52:19.282Z,29.60
2023-05-14T11:54:46.455Z,29.60
2023-05-14T11:57:16.561Z,29.60
2023-05-14T11:59:43.804Z,29.60
2023-05-14T12:02:12.836Z,29.60
2023-05-14T12:04:40.349Z,29.60
2023-05-14T12:07:15.686Z,29.70
2023-05-14T12:09:50.967Z,29.70
2023-05-14T12:12:19.984Z,29.70
2023-05-14T12:14:46.888Z,29.80
2023-05-14T12:17:21.619Z,29.90
2023-05-14T12:19:51.132Z,30.00
2023-05-14T12:22:21.431Z,30.00
2023-05-14T12:24:58.677Z,30.00
2023-05-14T12:27:26.969Z,30.10
2023-05-14T12:30:19.024Z,30.10
2023-05-14T12:32:49.129Z,30.30
2023-05-14T12:35:16.062Z,30.30
2023-05-14T12:37:43.028Z,30.30
2023-05-14T12:40:10.225Z,30.40
2023-05-14T12:42:37.086Z,30.40
2023-05-14T12:45:07.236Z,30.40
2023-05-14T12:47:34.275Z,30.40
2023-05-14T12:50:01.249Z,30.40
2023-05-14T12:52:37.465Z,30.40
2023-05-14T12:55:07.713Z,30.30
2023-05-14T12:57:35.392Z,30.30
2023-05-14T13:00:06.369Z,30.20
2023-05-14T13:02:33.217Z,30.20
2023-05-14T13:05:10.716Z,30.20
2023-05-14T13:07:37.555Z,30.20
2023-05-14T13:10:05.779Z,30.10
2023-05-14T13:12:32.827Z,30.10
2023-05-14T13:14:59.607Z,30.10
2023-05-14T13:17:26.445Z,30.10
2023-05-14T13:19:53.256Z,30.10
2023-05-14T13:22:20.088Z,30.10
2023-05-14T13:24:46.940Z,30.00
2023-05-14T13:27:13.728Z,30.00
2023-05-14T13:29:40.515Z,30.00
2023-05-14T13:32:07.528Z,30.00
2023-05-14T13:34:35.132Z,30.00
2023-05-14T13:37:02.007Z,30.00
2023-05-14T13:39:28.743Z,30.00
2023-05-14T13:41:56.840Z,30.00
2023-05-14T13:44:24.315Z,30.00
2023-05-14T13:46:51.278Z,30.00
2023-05-14T13:49:18.220Z,30.00
2023-05-14T13:51:45.309Z,30.00
2023-05-14T13:54:12.061Z,30.00
2023-05-14T13:56:39.652Z,30.00
2023-05-14T13:59:06.457Z,30.00
2023-05-14T14:01:33.403Z,29.90
2023-05-14T14:04:00.426Z,29.90
2023-05-14T14:06:27.549Z,29.90
2023-05-14T14:08:54.344Z,29.80
2023-05-14T14:11:22.080Z,29.80
2023-05-14T14:13:48.885Z,29.70
2023-05-14T14:16:16.303Z,29.60
2023-05-14T14:18:43.386Z,29.60
2023-05-14T14:21:10.561Z,29.50
2023-05-14T14:23:37.450Z,29.50
2023-05-14T14:26:04.460Z,29.40
2023-05-14T14:28:33.380Z,29.30
2023-05-14T14:31:00.169Z,29.30
2023-05-14T14:33:27.317Z,29.20
2023-05-14T14:35:54.131Z,29.10
2023-05-14T14:38:20.872Z,29.10
2023-05-14T14:40:47.695Z,29.00
2023-05-14T14:43:14.601Z,29.00
2023-05-14T14:45:42.785Z,28.90
2023-05-14T14:48:34.039Z,28.90
2023-05-14T14:51:01.522Z,28.90
2023-05-14T14:53:28.310Z,28.80
2023-05-14T14:55:55.218Z,28.70
2023-05-14T14:58:22.152Z,28.60
2023-05-14T15:00:53.799Z,28.60
2023-05-14T15:03:21.331Z,28.60
2023-05-14T15:05:48.432Z,28.50
2023-05-14T15:08:15.529Z,28.50
2023-05-14T15:10:42.393Z,28.50
2023-05-14T15:13:09.473Z,28.50
2023-05-14T15:15:36.385Z,28.40
2023-05-14T15:18:04.353Z,28.40
2023-05-14T15:20:31.242Z,28.40
2023-05-14T15:22:58.029Z,28.40
2023-05-14T15:25:26.968Z,28.40
2023-05-14T15:27:54.031Z,28.30
2023-05-14T15:30:20.841Z,28.30
2023-05-14T15:32:47.688Z,28.20
2023-05-14T15:35:14.521Z,28.20
2023-05-14T15:37:43.165Z,28.20
2023-05-14T15:40:11.519Z,28.20
2023-05-14T15:42:39.598Z,28.20
2023-05-14T15:45:06.731Z,28.20
2023-05-14T15:47:33.671Z,28.20
2023-05-14T15:50:01.003Z,28.20
2023-05-14T15:52:27.777Z,28.20
2023-05-14T15:54:56.172Z,28.10
2023-05-14T15:57:23.448Z,28.10
2023-05-14T15:59:51.448Z,28.10
2023-05-14T16:02:19.173Z,28.00
2023-05-14T16:04:45.896Z,28.00
2023-05-14T16:07:13.434Z,27.90
2023-05-14T16:09:40.369Z,27.90
2023-05-14T16:12:07.647Z,27.80
2023-05-14T16:14:35.624Z,27.80
2023-05-14T16:17:02.415Z,27.70
2023-05-14T16:19:29.217Z,27.60
2023-05-14T16:21:56.057Z,27.60
2023-05-14T16:24:22.832Z,27.50
2023-05-14T16:27:43.174Z,27.50
2023-05-14T16:30:10.439Z,27.40
2023-05-14T16:32:37.345Z,27.30
2023-05-14T16:35:04.413Z,27.20
2023-05-14T16:37:31.556Z,27.20
2023-05-14T16:39:58.359Z,27.10
2023-05-14T16:42:26.528Z,27.10
2023-05-14T16:44:53.330Z,27.10
2023-05-14T16:47:20.070Z,27.00
2023-05-14T16:49:46.816Z,26.90
2023-05-14T16:52:13.602Z,26.90
2023-05-14T16:54:40.457Z,26.80
2023-05-14T16:57:07.250Z,26.80
2023-05-14T16:59:34.169Z,26.80
2023-05-14T17:02:01.109Z,26.70
2023-05-14T17:04:28.023Z,26.70
2023-05-14T17:06:57.536Z,26.70
2023-05-14T17:09:24.670Z,26.70
2023-05-14T17:11:51.552Z,26.60
2023-05-14T17:14:18.317Z,26.60
2023-05-14T17:16:45.069Z,26.60
2023-05-14T17:19:12.512Z,26.70
2023-05-14T17:21:39.328Z,26.60
2023-05-14T17:24:06.326Z,26.70
2023-05-14T17:26:33.067Z,26.70
2023-05-14T17:28:59.877Z,26.60
2023-05-14T17:31:26.715Z,26.60
2023-05-14T17:33:53.568Z,26.60
2023-05-14T17:36:20.548Z,26.60
2023-05-14T17:38:47.729Z,26.50
2023-05-14T17:41:14.470Z,26.50
2023-05-14T17:43:41.247Z,26.40
2023-05-14T17:46:08.038Z,26.40
2023-05-14T17:48:34.850Z,26.40
2023-05-14T17:51:01.611Z,26.30
2023-05-14T17:53:28.540Z,26.20
2023-05-14T17:55:55.441Z,26.20
2023-05-14T17:58:22.331Z,26.20
2023-05-14T18:00:49.336Z,26.10
2023-05-14T18:03:17.477Z,26.10
2023-05-14T18:05:44.432Z,26.10
2023-05-14T18:08:11.158Z,26.00
2023-05-14T18:10:37.930Z,26.00
2023-05-14T18:13:04.671Z,26.00
2023-05-14T18:15:31.655Z,26.00
2023-05-14T18:17:58.529Z,25.90
2023-05-14T18:20:25.444Z,25.90
2023-05-14T18:22:52.388Z,25.80
2023-05-14T18:25:20.030Z,25.80
2023-05-14T18:27:47.011Z,25.80
2023-05-14T18:30:15.077Z,25.70
2023-05-14T18:32:43.957Z,25.70
2023-05-14T18:35:12.143Z,25.70
2023-05-14T18:37:38.909Z,25.60
2023-05-14T18:40:07.147Z,25.60
2023-05-14T18:42:34.388Z,25.60
2023-05-14T18:45:01.479Z,25.50
2023-05-14T18:47:28.340Z,25.50
2023-05-14T18:49:57.724Z,25.40
2023-05-14T18:52:24.779Z,25.40
2023-05-14T18:54:51.663Z,25.30
2023-05-14T18:57:18.371Z,25.30
2023-05-14T18:59:45.191Z,25.20
2023-05-14T19:02:12.050Z,25.20
2023-05-14T19:04:51.179Z,25.20
2023-05-14T19:07:19.887Z,25.30
2023-05-14T19:09:46.859Z,25.20
2023-05-14T19:12:14.104Z,25.20
2023-05-14T19:14:40.829Z,25.30
2023-05-14T19:17:07.719Z,25.30
2023-05-14T19:19:34.457Z,25.30
2023-05-14T19:22:01.175Z,25.30
2023-05-14T19:24:28.772Z,25.30
2023-05-14T19:26:55.913Z,25.30
2023-05-14T19:29:22.704Z,25.40
2023-05-14T19:31:50.019Z,25.40
2023-05-14T19:34:16.975Z,25.40
2023-05-14T19:36:43.705Z,25.40
2023-05-14T19:39:10.941Z,25.30
2023-05-14T19:41:37.754Z,25.30
2023-05-14T19:44:04.483Z,25.20
2023-05-14T19:46:32.084Z,25.20
2023-05-14T19:48:58.954Z,25.20
2023-05-14T19:51:25.672Z,25.20
2023-05-14T19:53:52.508Z,25.20
2023-05-14T19:56:19.220Z,25.20
2023-05-14T19:58:45.983Z,25.10
2023-05-14T20:01:14.470Z,25.10
2023-05-14T20:03:41.306Z,25.20
2023-05-14T20:06:08.165Z,25.20
2023-05-14T20:08:35.002Z,25.10
2023-05-14T20:11:01.913Z,25.10
2023-05-14T20:13:31.676Z,25.10
2023-05-14T20:15:58.810Z,25.10
2023-05-14T20:18:27.543Z,25.10
2023-05-14T20:20:54.712Z,25.10
2023-05-14T20:23:21.463Z,25.10
2023-05-14T20:25:48.264Z,25.00
2023-05-14T20:28:14.972Z,25.00
2023-05-14T20:30:41.753Z,25.00
2023-05-14T20:33:09.459Z,25.00
2023-05-14T20:35:36.270Z,24.90
2023-05-14T20:38:03.752Z,24.90
2023-05-14T20:40:32.574Z,24.90
2023-05-14T20:42:59.463Z,24.90
2023-05-14T20:45:26.576Z,24.90
2023-05-14T20:47:53.733Z,24.90
2023-05-14T20:50:21.507Z,24.90
2023-05-14T20:52:48.388Z,24.80
2023-05-14T20:55:15.435Z,24.80
2023-05-14T20:57:43.597Z,24.80
2023-05-14T21:00:11.122Z,24.80
2023-05-14T21:02:38.950Z,24.80
2023-05-14T21:05:06.294Z,24.70
2023-05-14T21:07:33.025Z,24.70
2023-05-14T21:09:59.776Z,24.70
2023-05-14T21:12:28.028Z,24.60
2023-05-14T21:14:54.733Z,24.60
2023-05-14T21:17:22.324Z,24.60
2023-05-14T21:19:49.116Z,24.60
2023-05-14T21:22:15.845Z,24.50
2023-05-14T21:24:42.613Z,24.60
2023-05-14T21:27:10.208Z,24.50
2023-05-14T21:29:36.912Z,24.50
2023-05-14T21:32:03.871Z,24.50
2023-05-14T21:34:32.010Z,24.40
2023-05-14T21:36:58.847Z,24.40
2023-05-14T21:39:25.603Z,24.40
2023-05-14T21:41:52.329Z,24.30
2023-05-14T21:44:19.078Z,24.30
2023-05-14T21:46:45.897Z,24.30
2023-05-14T21:49:12.599Z,24.30
2023-05-14T21:51:39.377Z,24.20
2023-05-14T21:54:07.198Z,24.20
2023-05-14T21:56:35.802Z,24.20
2023-05-14T21:59:02.605Z,24.20
2023-05-14T22:01:30.437Z,24.10
2023-05-14T22:03:57.842Z,24.10
2023-05-14T22:06:25.095Z,24.10
2023-05-14T22:08:51.881Z,24.10
2023-05-14T22:11:18.676Z,24.10
2023-05-14T22:13:45.397Z,24.10
2023-05-14T22:16:13.674Z,24.00
2023-05-14T22:18:41.047Z,24.00
2023-05-14T22:21:07.920Z,24.00
2023-05-14T22:23:34.703Z,24.00
2023-05-14T22:26:01.452Z,23.90
2023-05-14T22:28:28.217Z,23.90
2023-05-14T22:30:56.428Z,23.90
2023-05-14T22:33:23.353Z,23.90
2023-05-14T22:35:50.569Z,23.80
2023-05-14T22:38:17.395Z,23.80
2023-05-14T22:40:44.287Z,23.80
2023-05-14T22:43:11.116Z,23.80
2023-05-14T22:45:37.922Z,23.70
2023-05-14T22:48:04.884Z,23.70
2023-05-14T22:50:31.685Z,23.70
2023-05-14T22:52:58.488Z,23.70
2023-05-14T22:55:25.519Z,23.60
2023-05-14T22:57:52.407Z,23.60
2023-05-14T23:00:19.288Z,23.60
2023-05-14T23:02:46.918Z,23.60
2023-05-14T23:05:13.762Z,23.60
2023-05-14T23:07:40.563Z,23.50
2023-05-14T23:10:07.904Z,23.50
2023-05-14T23:12:34.659Z,23.50
2023-05-14T23:15:01.506Z,23.50
2023-05-14T23:17:28.646Z,23.40
2023-05-14T23:19:55.573Z,23.40
2023-05-14T23:22:22.395Z,23.40
2023-05-14T23:24:50.050Z,23.40
2023-05-14T23:27:16.953Z,23.30
2023-05-14T23:29:43.707Z,23.30
2023-05-14T23:32:10.569Z,23.30
2023-05-14T23:34:37.412Z,23.30
2023-05-14T23:37:04.230Z,23.20
2023-05-14T23:39:30.991Z,23.20
2023-05-14T23:41:58.553Z,23.20
2023-05-14T23:44:25.410Z,23.20
2023-05-14T23:46:52.221Z,23.10
2023-05-14T23:49:20.027Z,23.10
2023-05-14T23:51:46.751Z,23.10
2023-05-14T23:54:13.540Z,23.10
2023-05-14T23:56:40.647Z,23.00
2023-05-14T23:59:07.508Z,22.90
